sensor_id;sensor_type;location;lat;lon;timestamp;P1;durP1;ratioP1;P2;durP2;ratioP2
7699;SDS011;3892;47.794;19.126;2023-04-25T00:01:13;2.60;;;2.37;;
7699;SDS011;3892;47.794;19.126;2023-04-25T00:03:41;2.40;;;2.20;;
7699;SDS011;3892;47.794;19.126;2023-04-25T00:06:09;3.33;;;1.97;;
7699;SDS011;3892;47.794;19.126;2023-04-25T00:08:37;2.30;;;2.20;;
7699;SDS011;3892;47.794;19.126;2023-04-25T00:11:05;2.43;;;2.23;;
7699;SDS011;3892;47.794;19.126;2023-04-25T00:13:33;4.70;;;2.23;;
7699;SDS011;3892;47.794;19.126;2023-04-25T00:16:01;2.40;;;2.20;;
7699;SDS011;3892;47.794;19.126;2023-04-25T00:18:31;2.60;;;2.40;;
7699;SDS011;3892;47.794;19.126;2023-04-25T00:21:00;1.97;;;1.87;;
7699;SDS011;3892;47.794;19.126;2023-04-25T00:23:28;2.13;;;1.90;;
7699;SDS011;3892;47.794;19.126;2023-04-25T00:25:57;2.20;;;2.10;;
7699;SDS011;3892;47.794;19.126;2023-04-25T00:28:25;2.00;;;1.90;;
7699;SDS011;3892;47.794;19.126;2023-04-25T00:30:53;2.03;;;1.93;;
7699;SDS011;3892;47.794;19.126;2023-04-25T00:33:21;2.30;;;2.20;;
7699;SDS011;3892;47.794;19.126;2023-04-25T00:35:50;2.13;;;2.03;;
7699;SDS011;3892;47.794;19.126;2023-04-25T00:38:18;2.13;;;1.70;;
7699;SDS011;3892;47.794;19.126;2023-04-25T00:40:46;1.90;;;1.80;;
7699;SDS011;3892;47.794;19.126;2023-04-25T00:43:15;2.03;;;1.83;;
7699;SDS011;3892;47.794;19.126;2023-04-25T00:45:43;2.00;;;1.80;;
7699;SDS011;3892;47.794;19.126;2023-04-25T00:48:11;2.00;;;1.60;;
7699;SDS011;3892;47.794;19.126;2023-04-25T00:50:41;2.23;;;1.60;;
7699;SDS011;3892;47.794;19.126;2023-04-25T00:53:11;1.90;;;1.80;;
7699;SDS011;3892;47.794;19.126;2023-04-25T00:55:39;1.97;;;1.87;;
7699;SDS011;3892;47.794;19.126;2023-04-25T00:58:07;1.90;;;1.80;;
7699;SDS011;3892;47.794;19.126;2023-04-25T01:00:35;1.73;;;1.63;;
7699;SDS011;3892;47.794;19.126;2023-04-25T01:03:04;1.53;;;1.43;;
7699;SDS011;3892;47.794;19.126;2023-04-25T01:05:32;2.67;;;1.73;;
7699;SDS011;3892;47.794;19.126;2023-04-25T01:08:00;2.03;;;1.90;;
7699;SDS011;3892;47.794;19.126;2023-04-25T01:10:29;3.10;;;1.93;;
7699;SDS011;3892;47.794;19.126;2023-04-25T01:12:57;2.10;;;2.00;;
7699;SDS011;3892;47.794;19.126;2023-04-25T01:15:26;2.10;;;1.90;;
7699;SDS011;3892;47.794;19.126;2023-04-25T01:17:54;3.50;;;2.07;;
7699;SDS011;3892;47.794;19.126;2023-04-25T01:20:22;2.73;;;2.20;;
7699;SDS011;3892;47.794;19.126;2023-04-25T01:22:52;2.43;;;2.23;;
7699;SDS011;3892;47.794;19.126;2023-04-25T01:25:21;2.37;;;2.23;;
7699;SDS011;3892;47.794;19.126;2023-04-25T01:27:49;2.17;;;2.07;;
7699;SDS011;3892;47.794;19.126;2023-04-25T01:30:18;2.40;;;2.20;;
7699;SDS011;3892;47.794;19.126;2023-04-25T01:32:46;2.43;;;2.23;;
7699;SDS011;3892;47.794;19.126;2023-04-25T01:35:15;2.23;;;2.13;;
7699;SDS011;3892;47.794;19.126;2023-04-25T01:37:43;3.07;;;2.37;;
7699;SDS011;3892;47.794;19.126;2023-04-25T01:40:13;2.53;;;2.33;;
7699;SDS011;3892;47.794;19.126;2023-04-25T01:42:42;3.10;;;2.40;;
7699;SDS011;3892;47.794;19.126;2023-04-25T01:45:11;2.77;;;2.53;;
7699;SDS011;3892;47.794;19.126;2023-04-25T01:47:39;2.60;;;2.40;;
7699;SDS011;3892;47.794;19.126;2023-04-25T01:50:10;3.30;;;2.67;;
7699;SDS011;3892;47.794;19.126;2023-04-25T01:52:38;2.90;;;2.67;;
7699;SDS011;3892;47.794;19.126;2023-04-25T01:55:06;2.70;;;2.50;;
7699;SDS011;3892;47.794;19.126;2023-04-25T01:57:36;2.90;;;2.70;;
7699;SDS011;3892;47.794;19.126;2023-04-25T02:00:05;2.80;;;2.53;;
7699;SDS011;3892;47.794;19.126;2023-04-25T02:02:35;2.77;;;2.57;;
7699;SDS011;3892;47.794;19.126;2023-04-25T02:05:03;2.80;;;2.60;;
7699;SDS011;3892;47.794;19.126;2023-04-25T02:07:32;2.70;;;2.50;;
7699;SDS011;3892;47.794;19.126;2023-04-25T02:10:00;3.17;;;2.60;;
7699;SDS011;3892;47.794;19.126;2023-04-25T02:12:28;3.37;;;2.30;;
7699;SDS011;3892;47.794;19.126;2023-04-25T02:14:58;3.37;;;2.73;;
7699;SDS011;3892;47.794;19.126;2023-04-25T02:17:26;2.70;;;2.50;;
7699;SDS011;3892;47.794;19.126;2023-04-25T02:19:54;3.73;;;2.50;;
7699;SDS011;3892;47.794;19.126;2023-04-25T02:22:22;3.10;;;2.80;;
7699;SDS011;3892;47.794;19.126;2023-04-25T02:24:50;2.50;;;2.40;;
7699;SDS011;3892;47.794;19.126;2023-04-25T02:27:18;2.97;;;2.67;;
7699;SDS011;3892;47.794;19.126;2023-04-25T02:29:46;2.70;;;2.50;;
7699;SDS011;3892;47.794;19.126;2023-04-25T02:32:16;2.70;;;2.40;;
7699;SDS011;3892;47.794;19.126;2023-04-25T02:34:44;2.50;;;2.30;;
7699;SDS011;3892;47.794;19.126;2023-04-25T02:37:12;2.60;;;2.40;;
7699;SDS011;3892;47.794;19.126;2023-04-25T02:39:40;2.63;;;2.43;;
7699;SDS011;3892;47.794;19.126;2023-04-25T02:42:08;2.80;;;2.60;;
7699;SDS011;3892;47.794;19.126;2023-04-25T02:44:36;3.90;;;2.47;;
7699;SDS011;3892;47.794;19.126;2023-04-25T02:47:04;2.50;;;2.40;;
7699;SDS011;3892;47.794;19.126;2023-04-25T02:49:33;2.27;;;2.07;;
7699;SDS011;3892;47.794;19.126;2023-04-25T02:52:01;2.23;;;2.13;;
7699;SDS011;3892;47.794;19.126;2023-04-25T02:54:29;2.53;;;2.33;;
7699;SDS011;3892;47.794;19.126;2023-04-25T02:56:58;2.30;;;2.10;;
7699;SDS011;3892;47.794;19.126;2023-04-25T02:59:26;2.00;;;1.90;;
7699;SDS011;3892;47.794;19.126;2023-04-25T03:01:54;1.80;;;1.70;;
7699;SDS011;3892;47.794;19.126;2023-04-25T03:04:22;2.67;;;2.10;;
7699;SDS011;3892;47.794;19.126;2023-04-25T03:06:52;2.07;;;1.97;;
7699;SDS011;3892;47.794;19.126;2023-04-25T03:09:21;2.80;;;2.00;;
7699;SDS011;3892;47.794;19.126;2023-04-25T03:11:49;2.00;;;1.90;;
7699;SDS011;3892;47.794;19.126;2023-04-25T03:14:17;2.23;;;2.03;;
7699;SDS011;3892;47.794;19.126;2023-04-25T03:16:45;2.10;;;1.80;;
7699;SDS011;3892;47.794;19.126;2023-04-25T03:19:13;2.00;;;1.90;;
7699;SDS011;3892;47.794;19.126;2023-04-25T03:21:43;2.40;;;2.20;;
7699;SDS011;3892;47.794;19.126;2023-04-25T03:24:13;2.83;;;2.07;;
7699;SDS011;3892;47.794;19.126;2023-04-25T03:26:41;3.73;;;2.23;;
7699;SDS011;3892;47.794;19.126;2023-04-25T03:29:09;2.03;;;1.93;;
7699;SDS011;3892;47.794;19.126;2023-04-25T03:31:37;2.27;;;2.10;;
7699;SDS011;3892;47.794;19.126;2023-04-25T03:34:05;2.67;;;2.10;;
7699;SDS011;3892;47.794;19.126;2023-04-25T03:36:34;2.07;;;1.97;;
7699;SDS011;3892;47.794;19.126;2023-04-25T03:39:03;2.53;;;2.00;;
7699;SDS011;3892;47.794;19.126;2023-04-25T03:41:33;2.03;;;1.93;;
7699;SDS011;3892;47.794;19.126;2023-04-25T03:44:01;2.10;;;2.00;;
7699;SDS011;3892;47.794;19.126;2023-04-25T03:46:30;2.67;;;2.00;;
7699;SDS011;3892;47.794;19.126;2023-04-25T03:48:58;2.60;;;1.97;;
7699;SDS011;3892;47.794;19.126;2023-04-25T03:51:26;2.00;;;1.90;;
7699;SDS011;3892;47.794;19.126;2023-04-25T03:53:54;3.23;;;2.33;;
7699;SDS011;3892;47.794;19.126;2023-04-25T03:56:22;2.40;;;1.90;;
7699;SDS011;3892;47.794;19.126;2023-04-25T03:58:52;2.50;;;2.30;;
7699;SDS011;3892;47.794;19.126;2023-04-25T04:01:20;2.10;;;2.00;;
7699;SDS011;3892;47.794;19.126;2023-04-25T04:03:48;2.20;;;2.10;;
7699;SDS011;3892;47.794;19.126;2023-04-25T04:06:16;3.10;;;2.20;;
7699;SDS011;3892;47.794;19.126;2023-04-25T04:08:45;3.13;;;2.23;;
7699;SDS011;3892;47.794;19.126;2023-04-25T04:11:13;2.30;;;2.10;;
7699;SDS011;3892;47.794;19.126;2023-04-25T04:13:41;6.33;;;5.50;;
7699;SDS011;3892;47.794;19.126;2023-04-25T04:16:10;5.30;;;4.80;;
7699;SDS011;3892;47.794;19.126;2023-04-25T04:18:38;3.33;;;3.13;;
7699;SDS011;3892;47.794;19.126;2023-04-25T04:21:06;3.47;;;3.27;;
7699;SDS011;3892;47.794;19.126;2023-04-25T04:23:34;3.73;;;2.83;;
7699;SDS011;3892;47.794;19.126;2023-04-25T04:26:04;3.40;;;3.10;;
7699;SDS011;3892;47.794;19.126;2023-04-25T04:28:33;3.00;;;2.80;;
7699;SDS011;3892;47.794;19.126;2023-04-25T04:31:02;3.53;;;3.20;;
7699;SDS011;3892;47.794;19.126;2023-04-25T04:33:31;4.27;;;3.10;;
7699;SDS011;3892;47.794;19.126;2023-04-25T04:35:59;4.23;;;3.07;;
7699;SDS011;3892;47.794;19.126;2023-04-25T04:38:28;3.70;;;3.40;;
7699;SDS011;3892;47.794;19.126;2023-04-25T04:40:57;3.63;;;3.13;;
7699;SDS011;3892;47.794;19.126;2023-04-25T04:43:25;3.90;;;3.00;;
7699;SDS011;3892;47.794;19.126;2023-04-25T04:45:54;4.00;;;3.60;;
7699;SDS011;3892;47.794;19.126;2023-04-25T04:48:23;3.67;;;3.40;;
7699;SDS011;3892;47.794;19.126;2023-04-25T04:50:53;3.50;;;3.20;;
7699;SDS011;3892;47.794;19.126;2023-04-25T04:53:21;3.60;;;3.30;;
7699;SDS011;3892;47.794;19.126;2023-04-25T04:55:49;3.87;;;3.57;;
7699;SDS011;3892;47.794;19.126;2023-04-25T04:58:17;4.90;;;4.33;;
7699;SDS011;3892;47.794;19.126;2023-04-25T05:00:45;3.80;;;3.50;;
7699;SDS011;3892;47.794;19.126;2023-04-25T05:03:13;3.50;;;3.20;;
7699;SDS011;3892;47.794;19.126;2023-04-25T05:05:41;3.33;;;3.13;;
7699;SDS011;3892;47.794;19.126;2023-04-25T05:08:11;3.33;;;3.13;;
7699;SDS011;3892;47.794;19.126;2023-04-25T05:10:39;3.97;;;3.60;;
7699;SDS011;3892;47.794;19.126;2023-04-25T05:13:08;3.70;;;3.10;;
7699;SDS011;3892;47.794;19.126;2023-04-25T05:15:36;3.47;;;3.17;;
7699;SDS011;3892;47.794;19.126;2023-04-25T05:18:04;3.50;;;3.20;;
7699;SDS011;3892;47.794;19.126;2023-04-25T05:20:32;3.60;;;3.30;;
7699;SDS011;3892;47.794;19.126;2023-04-25T05:23:01;4.70;;;4.27;;
7699;SDS011;3892;47.794;19.126;2023-04-25T05:25:30;3.80;;;3.50;;
7699;SDS011;3892;47.794;19.126;2023-04-25T05:27:58;4.23;;;3.83;;
7699;SDS011;3892;47.794;19.126;2023-04-25T05:30:26;4.73;;;3.30;;
7699;SDS011;3892;47.794;19.126;2023-04-25T05:32:54;2.97;;;2.77;;
7699;SDS011;3892;47.794;19.126;2023-04-25T05:35:22;2.93;;;2.73;;
7699;SDS011;3892;47.794;19.126;2023-04-25T05:37:50;3.67;;;3.40;;
7699;SDS011;3892;47.794;19.126;2023-04-25T05:40:18;4.93;;;4.43;;
7699;SDS011;3892;47.794;19.126;2023-04-25T05:42:48;3.70;;;3.40;;
7699;SDS011;3892;47.794;19.126;2023-04-25T05:45:16;3.10;;;2.90;;
7699;SDS011;3892;47.794;19.126;2023-04-25T05:47:44;4.27;;;3.87;;
7699;SDS011;3892;47.794;19.126;2023-04-25T05:50:12;3.00;;;2.80;;
7699;SDS011;3892;47.794;19.126;2023-04-25T05:52:41;4.00;;;3.17;;
7699;SDS011;3892;47.794;19.126;2023-04-25T05:55:09;2.67;;;2.50;;
7699;SDS011;3892;47.794;19.126;2023-04-25T05:57:37;3.80;;;3.30;;
7699;SDS011;3892;47.794;19.126;2023-04-25T06:00:09;2.50;;;2.30;;
7699;SDS011;3892;47.794;19.126;2023-04-25T06:02:39;3.00;;;2.30;;
7699;SDS011;3892;47.794;19.126;2023-04-25T06:05:07;3.30;;;2.70;;
7699;SDS011;3892;47.794;19.126;2023-04-25T06:07:35;2.77;;;2.57;;
7699;SDS011;3892;47.794;19.126;2023-04-25T06:10:04;3.00;;;2.50;;
7699;SDS011;3892;47.794;19.126;2023-04-25T06:12:33;3.07;;;2.80;;
7699;SDS011;3892;47.794;19.126;2023-04-25T06:15:01;3.10;;;2.80;;
7699;SDS011;3892;47.794;19.126;2023-04-25T06:17:32;3.10;;;2.90;;
7699;SDS011;3892;47.794;19.126;2023-04-25T06:20:01;3.53;;;2.77;;
7699;SDS011;3892;47.794;19.126;2023-04-25T06:22:31;3.50;;;3.20;;
7699;SDS011;3892;47.794;19.126;2023-04-25T06:24:59;3.40;;;3.10;;
7699;SDS011;3892;47.794;19.126;2023-04-25T06:27:30;3.10;;;2.80;;
7699;SDS011;3892;47.794;19.126;2023-04-25T06:29:58;3.60;;;3.30;;
7699;SDS011;3892;47.794;19.126;2023-04-25T06:32:26;3.63;;;3.33;;
7699;SDS011;3892;47.794;19.126;2023-04-25T06:34:57;4.30;;;3.40;;
7699;SDS011;3892;47.794;19.126;2023-04-25T06:37:25;3.87;;;3.47;;
7699;SDS011;3892;47.794;19.126;2023-04-25T06:39:53;3.73;;;3.43;;
7699;SDS011;3892;47.794;19.126;2023-04-25T06:42:21;4.93;;;3.40;;
7699;SDS011;3892;47.794;19.126;2023-04-25T06:44:49;4.83;;;4.13;;
7699;SDS011;3892;47.794;19.126;2023-04-25T06:47:17;4.37;;;3.73;;
7699;SDS011;3892;47.794;19.126;2023-04-25T06:49:45;4.13;;;3.53;;
7699;SDS011;3892;47.794;19.126;2023-04-25T06:52:15;5.93;;;3.83;;
7699;SDS011;3892;47.794;19.126;2023-04-25T06:54:44;3.90;;;3.60;;
7699;SDS011;3892;47.794;19.126;2023-04-25T06:57:12;4.57;;;4.13;;
7699;SDS011;3892;47.794;19.126;2023-04-25T06:59:41;6.57;;;5.47;;
7699;SDS011;3892;47.794;19.126;2023-04-25T07:02:09;4.70;;;4.27;;
7699;SDS011;3892;47.794;19.126;2023-04-25T07:04:37;4.20;;;3.80;;
7699;SDS011;3892;47.794;19.126;2023-04-25T07:07:05;3.70;;;3.50;;
7699;SDS011;3892;47.794;19.126;2023-04-25T07:09:34;4.20;;;3.90;;
7699;SDS011;3892;47.794;19.126;2023-04-25T07:12:03;4.30;;;3.90;;
7699;SDS011;3892;47.794;19.126;2023-04-25T07:14:31;3.97;;;3.67;;
7699;SDS011;3892;47.794;19.126;2023-04-25T07:16:59;3.93;;;3.63;;
7699;SDS011;3892;47.794;19.126;2023-04-25T07:19:27;4.20;;;3.80;;
7699;SDS011;3892;47.794;19.126;2023-04-25T07:21:56;4.07;;;3.77;;
7699;SDS011;3892;47.794;19.126;2023-04-25T07:24:24;3.60;;;3.30;;
7699;SDS011;3892;47.794;19.126;2023-04-25T07:26:53;3.37;;;3.17;;
7699;SDS011;3892;47.794;19.126;2023-04-25T07:29:21;3.80;;;3.20;;
7699;SDS011;3892;47.794;19.126;2023-04-25T07:31:50;21.57;;;10.77;;
7699;SDS011;3892;47.794;19.126;2023-04-25T07:34:18;3.50;;;3.20;;
7699;SDS011;3892;47.794;19.126;2023-04-25T07:36:46;5.07;;;3.20;;
7699;SDS011;3892;47.794;19.126;2023-04-25T07:39:14;3.20;;;3.00;;
7699;SDS011;3892;47.794;19.126;2023-04-25T07:41:42;3.60;;;3.27;;
7699;SDS011;3892;47.794;19.126;2023-04-25T07:44:11;3.20;;;3.00;;
7699;SDS011;3892;47.794;19.126;2023-04-25T07:46:39;4.03;;;3.10;;
7699;SDS011;3892;47.794;19.126;2023-04-25T07:49:07;4.30;;;3.00;;
7699;SDS011;3892;47.794;19.126;2023-04-25T07:51:36;3.30;;;3.03;;
7699;SDS011;3892;47.794;19.126;2023-04-25T07:54:04;3.50;;;3.23;;
7699;SDS011;3892;47.794;19.126;2023-04-25T07:56:33;3.20;;;3.00;;
7699;SDS011;3892;47.794;19.126;2023-04-25T07:59:07;3.20;;;2.90;;
7699;SDS011;3892;47.794;19.126;2023-04-25T08:01:36;3.20;;;2.90;;
7699;SDS011;3892;47.794;19.126;2023-04-25T08:04:04;3.00;;;2.80;;
7699;SDS011;3892;47.794;19.126;2023-04-25T08:06:32;3.23;;;2.97;;
7699;SDS011;3892;47.794;19.126;2023-04-25T08:09:01;2.97;;;2.77;;
7699;SDS011;3892;47.794;19.126;2023-04-25T08:11:29;3.17;;;2.93;;
7699;SDS011;3892;47.794;19.126;2023-04-25T08:13:57;3.20;;;2.90;;
7699;SDS011;3892;47.794;19.126;2023-04-25T08:16:26;3.13;;;2.90;;
7699;SDS011;3892;47.794;19.126;2023-04-25T08:18:55;3.20;;;3.00;;
7699;SDS011;3892;47.794;19.126;2023-04-25T08:21:23;3.10;;;2.80;;
7699;SDS011;3892;47.794;19.126;2023-04-25T08:23:53;2.60;;;2.40;;
7699;SDS011;3892;47.794;19.126;2023-04-25T08:26:21;3.30;;;3.00;;
7699;SDS011;3892;47.794;19.126;2023-04-25T08:28:49;3.70;;;3.30;;
7699;SDS011;3892;47.794;19.126;2023-04-25T08:31:17;3.57;;;2.87;;
7699;SDS011;3892;47.794;19.126;2023-04-25T08:33:45;3.13;;;2.83;;
7699;SDS011;3892;47.794;19.126;2023-04-25T08:36:15;2.73;;;2.53;;
7699;SDS011;3892;47.794;19.126;2023-04-25T08:38:50;2.43;;;2.23;;
7699;SDS011;3892;47.794;19.126;2023-04-25T08:41:19;2.60;;;2.40;;
7699;SDS011;3892;47.794;19.126;2023-04-25T08:43:48;2.30;;;2.20;;
7699;SDS011;3892;47.794;19.126;2023-04-25T08:46:17;1.87;;;1.77;;
7699;SDS011;3892;47.794;19.126;2023-04-25T08:48:45;2.27;;;2.07;;
7699;SDS011;3892;47.794;19.126;2023-04-25T08:51:22;3.23;;;2.10;;
7699;SDS011;3892;47.794;19.126;2023-04-25T08:53:51;1.90;;;1.80;;
7699;SDS011;3892;47.794;19.126;2023-04-25T08:56:22;1.50;;;1.43;;
7699;SDS011;3892;47.794;19.126;2023-04-25T08:58:51;1.57;;;1.10;;
7699;SDS011;3892;47.794;19.126;2023-04-25T09:01:19;1.30;;;1.30;;
7699;SDS011;3892;47.794;19.126;2023-04-25T09:03:48;1.30;;;1.27;;
7699;SDS011;3892;47.794;19.126;2023-04-25T09:06:17;1.47;;;1.10;;
7699;SDS011;3892;47.794;19.126;2023-04-25T09:08:49;1.40;;;1.30;;
7699;SDS011;3892;47.794;19.126;2023-04-25T09:11:17;1.20;;;1.20;;
7699;SDS011;3892;47.794;19.126;2023-04-25T09:13:46;1.20;;;1.10;;
7699;SDS011;3892;47.794;19.126;2023-04-25T09:16:14;0.90;;;0.90;;
7699;SDS011;3892;47.794;19.126;2023-04-25T09:18:45;1.30;;;1.20;;
7699;SDS011;3892;47.794;19.126;2023-04-25T09:21:15;0.90;;;0.90;;
7699;SDS011;3892;47.794;19.126;2023-04-25T09:23:49;1.60;;;0.80;;
7699;SDS011;3892;47.794;19.126;2023-04-25T09:26:18;0.90;;;0.90;;
7699;SDS011;3892;47.794;19.126;2023-04-25T09:28:47;1.00;;;1.00;;
7699;SDS011;3892;47.794;19.126;2023-04-25T09:31:21;0.93;;;0.93;;
7699;SDS011;3892;47.794;19.126;2023-04-25T09:33:50;1.00;;;1.00;;
7699;SDS011;3892;47.794;19.126;2023-04-25T09:36:29;0.90;;;0.90;;
7699;SDS011;3892;47.794;19.126;2023-04-25T09:38:58;1.93;;;0.90;;
7699;SDS011;3892;47.794;19.126;2023-04-25T09:41:27;2.17;;;1.50;;
7699;SDS011;3892;47.794;19.126;2023-04-25T09:43:56;1.70;;;1.60;;
7699;SDS011;3892;47.794;19.126;2023-04-25T09:46:25;1.10;;;0.93;;
7699;SDS011;3892;47.794;19.126;2023-04-25T09:49:00;1.40;;;1.37;;
7699;SDS011;3892;47.794;19.126;2023-04-25T09:51:35;2.90;;;2.70;;
7699;SDS011;3892;47.794;19.126;2023-04-25T09:54:03;1.00;;;1.00;;
7699;SDS011;3892;47.794;19.126;2023-04-25T09:56:31;1.53;;;0.80;;
7699;SDS011;3892;47.794;19.126;2023-04-25T09:59:04;0.80;;;0.80;;
7699;SDS011;3892;47.794;19.126;2023-04-25T10:01:34;1.00;;;1.00;;
7699;SDS011;3892;47.794;19.126;2023-04-25T10:04:03;3.87;;;0.80;;
7699;SDS011;3892;47.794;19.126;2023-04-25T10:06:37;1.00;;;1.00;;
7699;SDS011;3892;47.794;19.126;2023-04-25T10:09:09;0.83;;;0.83;;
7699;SDS011;3892;47.794;19.126;2023-04-25T10:11:38;1.33;;;0.90;;
7699;SDS011;3892;47.794;19.126;2023-04-25T10:14:07;2.27;;;0.80;;
7699;SDS011;3892;47.794;19.126;2023-04-25T10:16:38;1.20;;;1.00;;
7699;SDS011;3892;47.794;19.126;2023-04-25T10:19:09;0.90;;;0.90;;
7699;SDS011;3892;47.794;19.126;2023-04-25T10:21:40;1.03;;;1.03;;
7699;SDS011;3892;47.794;19.126;2023-04-25T10:24:13;0.90;;;0.90;;
7699;SDS011;3892;47.794;19.126;2023-04-25T10:26:42;1.37;;;0.90;;
7699;SDS011;3892;47.794;19.126;2023-04-25T10:29:10;1.00;;;1.00;;
7699;SDS011;3892;47.794;19.126;2023-04-25T10:31:44;1.47;;;1.03;;
7699;SDS011;3892;47.794;19.126;2023-04-25T10:34:13;2.57;;;1.00;;
7699;SDS011;3892;47.794;19.126;2023-04-25T10:36:44;0.80;;;0.80;;
7699;SDS011;3892;47.794;19.126;2023-04-25T10:39:22;0.80;;;0.80;;
7699;SDS011;3892;47.794;19.126;2023-04-25T10:41:55;0.70;;;0.70;;
7699;SDS011;3892;47.794;19.126;2023-04-25T10:44:26;0.80;;;0.80;;
7699;SDS011;3892;47.794;19.126;2023-04-25T10:46:55;0.70;;;0.70;;
7699;SDS011;3892;47.794;19.126;2023-04-25T10:49:31;0.60;;;0.60;;
7699;SDS011;3892;47.794;19.126;2023-04-25T10:52:24;0.80;;;0.80;;
7699;SDS011;3892;47.794;19.126;2023-04-25T10:54:54;0.60;;;0.60;;
7699;SDS011;3892;47.794;19.126;2023-04-25T10:57:27;0.83;;;0.80;;
7699;SDS011;3892;47.794;19.126;2023-04-25T11:00:00;1.13;;;0.80;;
7699;SDS011;3892;47.794;19.126;2023-04-25T11:02:36;0.73;;;0.73;;
7699;SDS011;3892;47.794;19.126;2023-04-25T11:05:05;0.80;;;0.80;;
7699;SDS011;3892;47.794;19.126;2023-04-25T11:07:37;0.80;;;0.80;;
7699;SDS011;3892;47.794;19.126;2023-04-25T11:10:08;0.77;;;0.77;;
7699;SDS011;3892;47.794;19.126;2023-04-25T11:12:36;0.70;;;0.70;;
7699;SDS011;3892;47.794;19.126;2023-04-25T11:15:05;1.03;;;0.80;;
7699;SDS011;3892;47.794;19.126;2023-04-25T11:17:34;1.30;;;0.93;;
7699;SDS011;3892;47.794;19.126;2023-04-25T11:20:03;2.43;;;0.60;;
7699;SDS011;3892;47.794;19.126;2023-04-25T11:22:39;0.70;;;0.70;;
7699;SDS011;3892;47.794;19.126;2023-04-25T11:25:08;0.87;;;0.87;;
7699;SDS011;3892;47.794;19.126;2023-04-25T11:27:38;1.70;;;0.70;;
7699;SDS011;3892;47.794;19.126;2023-04-25T11:30:16;0.70;;;0.70;;
7699;SDS011;3892;47.794;19.126;2023-04-25T11:32:46;0.80;;;0.80;;
7699;SDS011;3892;47.794;19.126;2023-04-25T11:35:14;0.67;;;0.67;;
7699;SDS011;3892;47.794;19.126;2023-04-25T11:37:44;0.77;;;0.77;;
7699;SDS011;3892;47.794;19.126;2023-04-25T11:40:12;0.70;;;0.70;;
7699;SDS011;3892;47.794;19.126;2023-04-25T11:42:43;1.50;;;0.70;;
7699;SDS011;3892;47.794;19.126;2023-04-25T11:45:13;0.63;;;0.63;;
7699;SDS011;3892;47.794;19.126;2023-04-25T11:47:41;1.00;;;0.80;;
7699;SDS011;3892;47.794;19.126;2023-04-25T11:50:09;0.90;;;0.90;;
7699;SDS011;3892;47.794;19.126;2023-04-25T11:52:38;3.13;;;1.90;;
7699;SDS011;3892;47.794;19.126;2023-04-25T11:55:09;0.80;;;0.80;;
7699;SDS011;3892;47.794;19.126;2023-04-25T11:57:40;0.80;;;0.80;;
7699;SDS011;3892;47.794;19.126;2023-04-25T12:00:09;0.70;;;0.70;;
7699;SDS011;3892;47.794;19.126;2023-04-25T12:02:42;0.80;;;0.80;;
7699;SDS011;3892;47.794;19.126;2023-04-25T12:05:11;1.43;;;0.70;;
7699;SDS011;3892;47.794;19.126;2023-04-25T12:07:47;0.73;;;0.73;;
7699;SDS011;3892;47.794;19.126;2023-04-25T12:10:17;0.70;;;0.70;;
7699;SDS011;3892;47.794;19.126;2023-04-25T12:12:47;0.60;;;0.60;;
7699;SDS011;3892;47.794;19.126;2023-04-25T12:15:16;0.70;;;0.70;;
7699;SDS011;3892;47.794;19.126;2023-04-25T12:17:46;0.67;;;0.60;;
7699;SDS011;3892;47.794;19.126;2023-04-25T12:20:15;0.90;;;0.90;;
7699;SDS011;3892;47.794;19.126;2023-04-25T12:22:47;1.47;;;0.90;;
7699;SDS011;3892;47.794;19.126;2023-04-25T12:28:11;0.97;;;0.97;;
7699;SDS011;3892;47.794;19.126;2023-04-25T12:30:53;1.33;;;0.90;;
7699;SDS011;3892;47.794;19.126;2023-04-25T12:33:22;0.80;;;0.80;;
7699;SDS011;3892;47.794;19.126;2023-04-25T12:35:50;1.90;;;0.80;;
7699;SDS011;3892;47.794;19.126;2023-04-25T12:38:23;1.30;;;1.17;;
7699;SDS011;3892;47.794;19.126;2023-04-25T12:40:53;1.80;;;1.13;;
7699;SDS011;3892;47.794;19.126;2023-04-25T12:43:21;3.80;;;1.30;;
7699;SDS011;3892;47.794;19.126;2023-04-25T12:45:50;1.20;;;1.10;;
7699;SDS011;3892;47.794;19.126;2023-04-25T12:48:19;1.70;;;0.90;;
7699;SDS011;3892;47.794;19.126;2023-04-25T12:50:47;1.90;;;0.97;;
7699;SDS011;3892;47.794;19.126;2023-04-25T12:53:16;1.10;;;0.90;;
7699;SDS011;3892;47.794;19.126;2023-04-25T12:55:44;0.90;;;0.90;;
7699;SDS011;3892;47.794;19.126;2023-04-25T12:58:14;3.50;;;2.63;;
7699;SDS011;3892;47.794;19.126;2023-04-25T13:00:43;1.30;;;1.00;;
7699;SDS011;3892;47.794;19.126;2023-04-25T13:03:12;2.47;;;1.10;;
7699;SDS011;3892;47.794;19.126;2023-04-25T13:05:41;1.80;;;1.10;;
7699;SDS011;3892;47.794;19.126;2023-04-25T13:08:09;0.90;;;0.90;;
7699;SDS011;3892;47.794;19.126;2023-04-25T13:10:37;2.23;;;0.90;;
7699;SDS011;3892;47.794;19.126;2023-04-25T13:13:06;1.73;;;1.10;;
7699;SDS011;3892;47.794;19.126;2023-04-25T13:15:36;1.10;;;1.00;;
7699;SDS011;3892;47.794;19.126;2023-04-25T13:18:04;1.00;;;1.00;;
7699;SDS011;3892;47.794;19.126;2023-04-25T13:20:33;0.90;;;0.90;;
7699;SDS011;3892;47.794;19.126;2023-04-25T13:23:01;1.50;;;1.40;;
7699;SDS011;3892;47.794;19.126;2023-04-25T13:25:29;2.87;;;0.97;;
7699;SDS011;3892;47.794;19.126;2023-04-25T13:27:57;1.00;;;1.00;;
7699;SDS011;3892;47.794;19.126;2023-04-25T13:30:25;1.10;;;1.00;;
7699;SDS011;3892;47.794;19.126;2023-04-25T13:32:55;1.10;;;1.00;;
7699;SDS011;3892;47.794;19.126;2023-04-25T13:35:24;1.10;;;0.97;;
7699;SDS011;3892;47.794;19.126;2023-04-25T13:37:52;1.00;;;1.00;;
7699;SDS011;3892;47.794;19.126;2023-04-25T13:40:20;1.00;;;0.90;;
7699;SDS011;3892;47.794;19.126;2023-04-25T13:42:50;1.17;;;1.00;;
7699;SDS011;3892;47.794;19.126;2023-04-25T13:45:18;1.23;;;1.13;;
7699;SDS011;3892;47.794;19.126;2023-04-25T13:47:46;1.20;;;1.00;;
7699;SDS011;3892;47.794;19.126;2023-04-25T13:50:16;2.00;;;1.80;;
7699;SDS011;3892;47.794;19.126;2023-04-25T13:52:44;1.60;;;1.50;;
7699;SDS011;3892;47.794;19.126;2023-04-25T13:55:12;2.30;;;1.13;;
7699;SDS011;3892;47.794;19.126;2023-04-25T13:57:41;2.13;;;1.30;;
7699;SDS011;3892;47.794;19.126;2023-04-25T14:00:10;1.73;;;1.30;;
7699;SDS011;3892;47.794;19.126;2023-04-25T14:02:39;2.60;;;1.10;;
7699;SDS011;3892;47.794;19.126;2023-04-25T14:05:07;1.43;;;1.00;;
7699;SDS011;3892;47.794;19.126;2023-04-25T14:07:37;2.03;;;1.10;;
7699;SDS011;3892;47.794;19.126;2023-04-25T14:10:06;1.40;;;1.10;;
7699;SDS011;3892;47.794;19.126;2023-04-25T14:12:34;2.77;;;1.17;;
7699;SDS011;3892;47.794;19.126;2023-04-25T14:15:02;1.70;;;0.90;;
7699;SDS011;3892;47.794;19.126;2023-04-25T14:17:31;1.33;;;0.90;;
7699;SDS011;3892;47.794;19.126;2023-04-25T14:19:59;1.10;;;1.10;;
7699;SDS011;3892;47.794;19.126;2023-04-25T14:22:27;2.80;;;1.20;;
7699;SDS011;3892;47.794;19.126;2023-04-25T14:24:58;1.40;;;1.30;;
7699;SDS011;3892;47.794;19.126;2023-04-25T14:27:26;1.40;;;1.00;;
7699;SDS011;3892;47.794;19.126;2023-04-25T14:29:54;1.30;;;1.10;;
7699;SDS011;3892;47.794;19.126;2023-04-25T14:32:22;1.03;;;1.03;;
7699;SDS011;3892;47.794;19.126;2023-04-25T14:34:50;1.13;;;1.10;;
7699;SDS011;3892;47.794;19.126;2023-04-25T14:37:19;1.27;;;1.00;;
7699;SDS011;3892;47.794;19.126;2023-04-25T14:39:47;6.20;;;1.60;;
7699;SDS011;3892;47.794;19.126;2023-04-25T14:42:16;1.10;;;1.00;;
7699;SDS011;3892;47.794;19.126;2023-04-25T14:44:44;2.80;;;1.00;;
7699;SDS011;3892;47.794;19.126;2023-04-25T14:47:12;2.67;;;2.47;;
7699;SDS011;3892;47.794;19.126;2023-04-25T14:49:41;3.00;;;2.33;;
7699;SDS011;3892;47.794;19.126;2023-04-25T14:52:09;1.30;;;1.20;;
7699;SDS011;3892;47.794;19.126;2023-04-25T14:54:37;1.33;;;1.20;;
7699;SDS011;3892;47.794;19.126;2023-04-25T14:57:06;2.27;;;1.30;;
7699;SDS011;3892;47.794;19.126;2023-04-25T14:59:35;1.10;;;1.10;;
7699;SDS011;3892;47.794;19.126;2023-04-25T15:02:03;1.13;;;1.13;;
7699;SDS011;3892;47.794;19.126;2023-04-25T15:04:32;3.00;;;2.20;;
7699;SDS011;3892;47.794;19.126;2023-04-25T15:07:00;2.27;;;1.23;;
7699;SDS011;3892;47.794;19.126;2023-04-25T15:09:29;4.27;;;1.60;;
7699;SDS011;3892;47.794;19.126;2023-04-25T15:11:57;1.40;;;1.30;;
7699;SDS011;3892;47.794;19.126;2023-04-25T15:14:25;2.40;;;2.20;;